Time;durP1;ratioP1;P1;durP2;ratioP2;P2;SDS_P1;SDS_P2;PMS_P1;PMS_P2;Temp;Humidity;BMP_temperature;BMP_pressure;BME280_temperature;BME280_humidity;BME280_pressure;Samples;Min_cycle;Max_cycle;Signal;HPM_P1;HPM_P2
2022/08/10 00:02:33;;;;;;;2.57;2.30;;;;;;;24.37;35.21;98071.22;5023566;28;20186;-70
2022/08/10 00:04:58;;;;;;;3.60;1.90;;;;;;;24.39;35.28;98071.81;5027453;28;20490;-70
2022/08/10 00:07:24;;;;;;;3.63;1.90;;;;;;;24.32;35.51;98073.72;5024275;28;20294;-70
2022/08/10 00:09:49;;;;;;;4.27;2.10;;;;;;;24.29;35.82;98071.50;5034759;28;20621;-70
2022/08/10 00:12:14;;;;;;;3.40;2.10;;;;;;;24.07;36.11;98074.56;5026640;28;20275;-69
2022/08/10 00:14:40;;;;;;;3.57;2.17;;;;;;;24.07;36.30;98069.22;5037359;28;20187;-70
2022/08/10 00:17:05;;;;;;;3.23;2.20;;;;;;;24.04;36.71;98068.84;5025732;28;20331;-71
2022/08/10 00:19:31;;;;;;;2.57;2.03;;;;;;;24.02;36.65;98073.56;5026186;28;20717;-70
2022/08/10 00:21:56;;;;;;;2.33;2.10;;;;;;;23.89;36.84;98066.47;5037936;28;20544;-71
2022/08/10 00:24:23;;;;;;;3.60;2.53;;;;;;;23.80;36.86;98059.75;5025662;28;20203;-70
2022/08/10 00:26:48;;;;;;;2.10;2.00;;;;;;;23.89;36.92;98066.47;5041666;28;20202;-71
2022/08/10 00:29:14;;;;;;;2.70;2.30;;;;;;;23.84;37.18;98069.78;5038055;28;20988;-70
2022/08/10 00:31:39;;;;;;;2.47;2.27;;;;;;;23.76;37.23;98070.03;5044130;28;20186;-69
2022/08/10 00:34:04;;;;;;;2.83;2.30;;;;;;;23.49;37.72;98067.56;5048763;28;20185;-70
2022/08/10 00:36:30;;;;;;;2.63;2.33;;;;;;;23.53;37.87;98066.06;5033551;28;20657;-69
2022/08/10 00:38:55;;;;;;;4.53;2.60;;;;;;;23.36;37.88;98068.44;5040225;28;20184;-70
2022/08/10 00:41:21;;;;;;;2.47;2.27;;;;;;;23.38;38.03;98069.03;5042327;28;20225;-69
2022/08/10 00:43:46;;;;;;;2.90;2.07;;;;;;;23.24;38.08;98070.16;5040172;28;20571;-69
2022/08/10 00:46:12;;;;;;;6.10;2.00;;;;;;;23.26;38.37;98062.72;5044667;28;20690;-69
2022/08/10 00:48:37;;;;;;;3.40;2.27;;;;;;;23.29;38.31;98067.66;5044685;28;20266;-69
2022/08/10 00:51:03;;;;;;;3.67;2.50;;;;;;;23.16;38.58;98064.00;5039213;28;20185;-70
2022/08/10 00:53:29;;;;;;;3.13;2.03;;;;;;;23.16;38.77;98058.63;5021246;28;20527;-70
2022/08/10 00:55:55;;;;;;;3.50;2.37;;;;;;;23.17;38.77;98059.44;5037935;28;20508;-70
2022/08/10 00:58:20;;;;;;;2.30;2.10;;;;;;;23.15;38.63;98059.66;5034187;28;20180;-70
2022/08/10 01:00:47;;;;;;;5.70;2.27;;;;;;;23.13;39.01;98052.88;5039647;28;20433;-70
2022/08/10 01:03:13;;;;;;;2.20;2.10;;;;;;;23.12;39.19;98054.75;5042450;28;20716;-69
2022/08/10 01:05:44;;;;;;;2.97;2.03;;;;;;;23.02;39.49;98054.38;5035908;28;20935;-71
2022/08/10 01:08:58;;;;;;;6.53;2.10;;;;;;;23.04;39.38;98054.16;5033976;28;20431;-69
2022/08/10 01:12:09;;;;;;;3.83;2.00;;;;;;;23.01;39.59;98055.41;5023813;28;22118;-70
2022/08/10 01:14:38;;;;;;;4.43;2.30;;;;;;;23.04;39.51;98055.00;5028266;28;20426;-69
2022/08/10 01:17:07;;;;;;;4.73;2.10;;;;;;;22.84;39.89;98058.56;5039113;28;20552;-70
2022/08/10 01:19:39;;;;;;;2.07;1.97;;;;;;;22.71;40.22;98058.59;5037271;28;20445;-69
2022/08/10 01:22:11;;;;;;;3.47;2.40;;;;;;;22.71;40.42;98058.59;5025414;28;20431;-69
2022/08/10 01:25:03;;;;;;;3.03;2.20;;;;;;;22.71;40.30;98061.25;5037945;28;20417;-69
2022/08/10 01:28:06;;;;;;;3.50;2.27;;;;;;;22.68;40.39;98069.72;5032890;28;20442;-71
2022/08/10 01:30:32;;;;;;;8.40;2.30;;;;;;;22.70;40.44;98067.63;5028162;28;20473;-69
2022/08/10 01:33:12;;;;;;;2.73;2.37;;;;;;;22.65;40.62;98064.78;5017157;28;20427;-69
2022/08/10 01:35:59;;;;;;;6.30;2.40;;;;;;;22.52;40.99;98063.78;5029413;28;20844;-69
2022/08/10 01:38:31;;;;;;;5.17;2.57;;;;;;;22.54;40.91;98061.72;5042461;28;20460;-69
2022/08/10 01:41:09;;;;;;;2.90;2.50;;;;;;;22.49;40.94;98058.84;5043342;28;20999;-69
2022/08/10 01:43:40;;;;;;;3.50;2.70;;;;;;;22.60;40.91;98060.06;5033604;28;20846;-68
2022/08/10 01:46:07;;;;;;;3.63;2.70;;;;;;;22.58;40.66;98066.63;5040756;28;20449;-69
2022/08/10 01:48:39;;;;;;;3.63;2.13;;;;;;;22.61;40.80;98066.22;5027317;28;20446;-69
2022/08/10 01:51:13;;;;;;;6.90;2.80;;;;;;;22.52;41.00;98069.13;5025712;28;20940;-69
2022/08/10 01:53:46;;;;;;;3.13;2.80;;;;;;;22.52;40.96;98070.97;5033333;28;20870;-69
2022/08/10 01:56:13;;;;;;;2.63;2.43;;;;;;;22.55;40.82;98068.72;5028440;28;20455;-69
2022/08/10 01:58:39;;;;;;;3.00;2.50;;;;;;;22.53;40.81;98065.44;5021395;28;20419;-68
2022/08/10 02:01:06;;;;;;;3.47;2.20;;;;;;;22.34;41.59;98066.22;5021725;28;20427;-69
2022/08/10 02:03:33;;;;;;;2.70;2.20;;;;;;;22.26;41.81;98064.59;5035995;28;20431;-69
2022/08/10 02:06:00;;;;;;;3.53;2.37;;;;;;;22.31;41.65;98074.66;5050797;28;21209;-69
2022/08/10 02:08:26;;;;;;;3.40;2.60;;;;;;;22.34;41.66;98066.22;5020946;28;20422;-70
2022/08/10 02:10:53;;;;;;;3.80;2.40;;;;;;;22.24;41.80;98061.34;5032377;28;20471;-69
2022/08/10 02:13:19;;;;;;;2.73;2.50;;;;;;;22.12;42.24;98063.78;5022661;28;20502;-69
2022/08/10 02:15:47;;;;;;;5.73;2.10;;;;;;;22.16;41.88;98064.19;5034186;28;20425;-68
2022/08/10 02:18:13;;;;;;;7.53;2.63;;;;;;;22.12;42.26;98066.47;5023453;28;20798;-70
2022/08/10 02:20:44;;;;;;;7.20;2.03;;;;;;;22.14;42.26;98061.75;5035419;28;20413;-69
2022/08/10 02:23:20;;;;;;;2.53;2.20;;;;;;;22.05;42.56;98063.78;5031866;28;20437;-71
2022/08/10 02:25:46;;;;;;;2.53;2.33;;;;;;;22.03;42.38;98065.03;5023203;28;20427;-69
2022/08/10 02:28:15;;;;;;;2.50;2.03;;;;;;;22.06;42.30;98062.78;5023579;28;20518;-70
2022/08/10 02:30:42;;;;;;;5.57;1.87;;;;;;;21.96;42.92;98065.03;5041565;28;20879;-70
2022/08/10 02:33:08;;;;;;;5.50;2.13;;;;;;;21.87;42.75;98061.75;5032484;28;20419;-70
2022/08/10 02:35:34;;;;;;;2.13;2.03;;;;;;;21.88;43.19;98074.06;5022974;28;20428;-70
2022/08/10 02:38:03;;;;;;;4.53;2.60;;;;;;;21.86;43.23;98057.44;5037772;28;20449;-69
2022/08/10 02:40:31;;;;;;;2.43;2.20;;;;;;;21.79;43.02;98068.09;5033788;28;20500;-70
2022/08/10 02:43:05;;;;;;;4.87;2.40;;;;;;;21.76;43.22;98065.00;5039833;28;20510;-71
2022/08/10 02:45:49;;;;;;;2.63;2.40;;;;;;;21.71;43.37;98067.47;5011702;28;20826;-70
2022/08/10 02:48:19;;;;;;;4.10;2.60;;;;;;;21.63;43.79;98061.31;5040468;28;20432;-70
2022/08/10 02:50:49;;;;;;;4.07;2.63;;;;;;;21.69;43.86;98064.16;5024646;28;20463;-69
2022/08/10 02:53:22;;;;;;;3.20;2.40;;;;;;;21.71;43.53;98064.78;5037101;28;20440;-70
2022/08/10 02:55:52;;;;;;;3.47;2.63;;;;;;;21.60;44.10;98069.69;5031682;28;20437;-71
2022/08/10 02:58:50;;;;;;;2.40;2.30;;;;;;;21.72;43.77;98071.78;5037567;28;20498;-71
2022/08/10 03:01:18;;;;;;;2.40;2.20;;;;;;;21.66;43.74;98067.25;5031200;28;20462;-71
2022/08/10 03:03:48;;;;;;;2.80;2.60;;;;;;;21.46;44.24;98068.00;5035682;28;20426;-71
2022/08/10 03:06:18;;;;;;;10.10;2.90;;;;;;;21.46;44.38;98066.16;5034219;28;20847;-71
2022/08/10 03:08:44;;;;;;;6.10;3.37;;;;;;;21.40;44.53;98066.16;5012452;28;21016;-72
2022/08/10 03:11:17;;;;;;;3.83;2.30;;;;;;;21.39;44.63;98061.84;5050188;28;20438;-72
2022/08/10 03:13:43;;;;;;;3.03;2.80;;;;;;;21.44;44.58;98068.22;5018388;28;20821;-71
2022/08/10 03:16:09;;;;;;;3.20;2.70;;;;;;;21.39;44.52;98064.50;5033654;28;20457;-72
2022/08/10 03:18:35;;;;;;;3.20;2.93;;;;;;;21.39;44.52;98065.31;5009398;28;20433;-72
2022/08/10 03:21:01;;;;;;;3.33;2.40;;;;;;;21.45;44.62;98063.69;5008325;28;20230;-72
2022/08/10 03:23:26;;;;;;;5.80;3.00;;;;;;;21.43;44.60;98069.22;5021251;28;20179;-71
2022/08/10 03:25:54;;;;;;;3.93;2.90;;;;;;;21.40;44.53;98064.28;5010561;28;20176;-71
2022/08/10 03:28:21;;;;;;;5.17;2.70;;;;;;;21.31;44.80;98070.84;5023224;28;20176;-70
2022/08/10 03:30:47;;;;;;;7.30;3.00;;;;;;;21.31;44.93;98066.31;5014344;28;20459;-71
2022/08/10 03:33:14;;;;;;;3.13;2.83;;;;;;;21.33;44.93;98066.94;5021415;28;20778;-71
2022/08/10 03:35:39;;;;;;;3.10;2.73;;;;;;;21.43;44.43;98069.22;5002735;28;20180;-71
2022/08/10 03:38:05;;;;;;;2.90;2.60;;;;;;;21.47;44.25;98069.66;5025817;28;20998;-71
2022/08/10 03:40:33;;;;;;;3.13;2.50;;;;;;;21.46;44.29;98073.34;5025601;28;20211;-72
2022/08/10 03:43:00;;;;;;;3.30;3.00;;;;;;;21.43;44.60;98071.06;5036500;28;20600;-71
2022/08/10 03:45:26;;;;;;;3.03;2.73;;;;;;;21.37;44.68;98077.22;5028285;28;20517;-71
2022/08/10 03:47:53;;;;;;;5.10;2.60;;;;;;;21.28;45.27;98069.41;5033609;28;20517;-70
2022/08/10 03:50:19;;;;;;;3.17;2.63;;;;;;;21.31;44.97;98071.66;4992130;28;20199;-71
2022/08/10 03:52:44;;;;;;;2.30;2.10;;;;;;;21.36;44.70;98067.56;5030894;28;20492;-70
2022/08/10 03:55:11;;;;;;;3.17;2.87;;;;;;;21.26;45.03;98070.59;5035197;28;21033;-70
2022/08/10 03:57:36;;;;;;;2.70;2.50;;;;;;;21.32;45.03;98072.50;5035688;28;20203;-71
2022/08/10 04:00:03;;;;;;;4.87;2.80;;;;;;;21.23;45.29;98063.03;5031456;28;20414;-71
2022/08/10 04:02:29;;;;;;;3.83;3.07;;;;;;;21.11;45.27;98065.44;5035030;28;20175;-71
2022/08/10 04:04:55;;;;;;;3.40;2.80;;;;;;;21.16;45.49;98063.00;5018927;28;20897;-71
2022/08/10 04:07:20;;;;;;;2.70;2.50;;;;;;;21.07;45.75;98077.50;5033920;28;20494;-70
2022/08/10 04:09:46;;;;;;;3.40;2.60;;;;;;;21.18;45.19;98079.59;5035927;28;20294;-70
2022/08/10 04:12:11;;;;;;;6.67;3.00;;;;;;;21.17;45.60;98083.31;5037084;28;20187;-71
2022/08/10 04:14:37;;;;;;;3.30;2.70;;;;;;;21.15;45.52;98080.81;5027858;28;20183;-70
2022/08/10 04:17:02;;;;;;;3.97;2.80;;;;;;;21.12;45.45;98075.88;5032225;28;20210;-71
2022/08/10 04:19:29;;;;;;;9.07;3.20;;;;;;;21.10;45.71;98085.09;5033451;28;20175;-70
2022/08/10 04:21:59;;;;;;;3.40;3.13;;;;;;;21.05;46.02;98093.69;5032463;28;20229;-70
2022/08/10 04:24:25;;;;;;;7.13;2.90;;;;;;;20.99;46.18;98089.16;5034635;28;21008;-70
2022/08/10 04:26:51;;;;;;;9.03;3.40;;;;;;;20.99;45.90;98089.16;5034573;28;20533;-71
2022/08/10 04:29:16;;;;;;;5.87;2.90;;;;;;;21.01;46.12;98098.63;5038118;28;20464;-70
2022/08/10 04:31:43;;;;;;;4.83;2.60;;;;;;;21.02;46.05;98097.59;5036302;28;20187;-71
2022/08/10 04:34:09;;;;;;;4.87;2.80;;;;;;;20.95;46.21;98099.38;5035599;28;20206;-70
2022/08/10 04:36:36;;;;;;;4.50;3.17;;;;;;;20.86;46.67;98093.41;5032470;28;20450;-71
2022/08/10 04:39:01;;;;;;;4.00;3.00;;;;;;;20.94;46.59;98097.75;5023694;28;20434;-70
2022/08/10 04:41:27;;;;;;;4.00;2.97;;;;;;;20.98;46.16;98096.34;5032920;28;20437;-70
2022/08/10 04:43:52;;;;;;;9.73;2.70;;;;;;;20.97;46.01;98100.03;5030070;28;20596;-70
2022/08/10 04:46:18;;;;;;;4.80;2.97;;;;;;;20.93;46.24;98097.94;5026242;28;20334;-70
2022/08/10 04:48:43;;;;;;;4.00;2.63;;;;;;;20.97;46.37;98108.00;5035423;28;20651;-70
2022/08/10 04:51:13;;;;;;;3.60;2.67;;;;;;;20.97;46.36;98102.69;5029108;28;20188;-71
2022/08/10 04:53:38;;;;;;;4.40;3.00;;;;;;;21.09;46.52;98094.13;5025051;28;20549;-70
2022/08/10 04:56:04;;;;;;;4.77;2.80;;;;;;;21.11;45.99;98092.09;5023954;28;20450;-70
2022/08/10 04:58:29;;;;;;;4.30;2.83;;;;;;;21.04;46.64;98099.25;5021473;28;20724;-71
2022/08/10 05:00:54;;;;;;;5.80;3.50;;;;;;;21.11;46.88;98100.88;5026567;28;20214;-69
2022/08/10 05:03:20;;;;;;;4.40;3.40;;;;;;;21.08;46.98;98100.47;5028770;28;20246;-70
2022/08/10 05:05:45;;;;;;;4.23;3.00;;;;;;;21.08;47.40;98097.81;5020216;28;20196;-71
2022/08/10 05:08:11;;;;;;;5.23;3.57;;;;;;;21.19;46.95;98086.56;5021838;28;20216;-70
2022/08/10 05:10:36;;;;;;;5.70;3.40;;;;;;;21.15;46.90;98106.66;5023036;28;20212;-70
2022/08/10 05:13:02;;;;;;;4.90;2.83;;;;;;;21.24;46.71;98100.13;5018507;28;20268;-72
2022/08/10 05:15:27;;;;;;;8.63;3.23;;;;;;;21.18;47.03;98101.75;5026673;28;20326;-70
2022/08/10 05:17:53;;;;;;;5.03;3.40;;;;;;;21.22;47.20;98104.84;5019827;28;20844;-72
2022/08/10 05:20:19;;;;;;;6.70;3.50;;;;;;;21.35;47.27;98103.25;5026622;28;20231;-73
2022/08/10 05:22:45;;;;;;;5.50;3.87;;;;;;;21.39;47.33;98104.50;5016462;28;20195;-71
2022/08/10 05:25:16;;;;;;;4.90;3.90;;;;;;;21.39;46.78;98102.63;5015817;28;20424;-70
2022/08/10 05:27:42;;;;;;;4.23;3.83;;;;;;;21.39;46.83;98101.84;5024100;28;20212;-72
2022/08/10 05:30:10;;;;;;;4.57;3.60;;;;;;;21.48;46.92;98100.63;5017090;28;20463;-71
2022/08/10 05:32:36;;;;;;;6.17;4.50;;;;;;;21.57;47.07;98107.41;5033538;28;20449;-70
2022/08/10 05:35:02;;;;;;;4.37;3.80;;;;;;;21.69;46.75;98102.34;5016529;28;20775;-71
2022/08/10 05:37:29;;;;;;;5.00;3.43;;;;;;;21.79;46.72;98108.09;5031833;28;20504;-71
2022/08/10 05:39:55;;;;;;;5.90;4.20;;;;;;;21.82;46.25;98106.06;5031733;28;20426;-70
2022/08/10 05:42:22;;;;;;;8.83;3.53;;;;;;;21.87;45.69;98104.44;5020404;28;20456;-69
2022/08/10 05:44:47;;;;;;;8.80;3.70;;;;;;;22.00;45.06;98108.13;5034553;28;20426;-70
2022/08/10 05:47:12;;;;;;;5.80;3.67;;;;;;;22.06;45.24;98101.97;5031493;28;20442;-70
2022/08/10 05:49:38;;;;;;;7.57;3.00;;;;;;;22.18;44.91;98103.00;5032505;28;20212;-71
2022/08/10 05:52:04;;;;;;;4.80;3.40;;;;;;;22.31;44.42;98106.69;5031340;28;20274;-70
2022/08/10 05:54:29;;;;;;;5.63;3.73;;;;;;;22.43;44.34;98105.06;5024518;28;20187;-70
2022/08/10 05:56:55;;;;;;;9.03;3.50;;;;;;;22.59;43.95;98117.19;5031562;28;20199;-73
2022/08/10 05:59:21;;;;;;;5.83;3.30;;;;;;;22.75;43.79;98107.91;5029773;28;20195;-71
2022/08/10 06:01:48;;;;;;;4.73;3.07;;;;;;;22.94;43.52;98113.41;5024295;28;20211;-71
2022/08/10 06:04:24;;;;;;;4.87;3.43;;;;;;;23.05;42.11;98110.09;5015907;28;20423;-70
2022/08/10 06:06:51;;;;;;;4.90;3.67;;;;;;;23.17;41.58;98113.75;5029867;28;20536;-71
2022/08/10 06:09:17;;;;;;;4.20;3.50;;;;;;;23.38;41.91;98108.31;5017892;28;20466;-70
2022/08/10 06:11:44;;;;;;;8.40;4.00;;;;;;;23.55;41.60;98108.66;5032263;28;20988;-70
2022/08/10 06:16:56;;;;;;;8.17;3.80;;;;;;;23.94;40.75;98104.09;5020762;28;20442;-70
2022/08/10 06:19:22;;;;;;;13.30;3.70;;;;;;;24.13;40.48;98112.22;5016160;28;20876;-71
2022/08/10 06:21:48;;;;;;;5.90;3.13;;;;;;;24.32;40.26;98113.09;5015820;28;20833;-71
2022/08/10 06:24:16;;;;;;;5.07;2.90;;;;;;;24.46;39.02;98119.16;5014466;28;20423;-70
2022/08/10 06:26:42;;;;;;;4.60;2.70;;;;;;;24.59;38.74;98119.03;5017312;28;20230;-71
2022/08/10 06:29:10;;;;;;;4.73;2.73;;;;;;;24.75;38.53;98111.50;5026998;28;20536;-70
2022/08/10 06:31:38;;;;;;;6.90;2.93;;;;;;;24.94;38.32;98104.28;5023836;28;20429;-70
2022/08/10 06:34:06;;;;;;;5.67;3.80;;;;;;;25.09;37.86;98107.41;5021053;28;20923;-72
2022/08/10 06:36:32;;;;;;;3.60;2.93;;;;;;;25.27;37.62;98109.25;5024259;28;20507;-70
2022/08/10 06:38:58;;;;;;;9.57;3.20;;;;;;;25.42;36.60;98105.38;5023046;28;20450;-70
2022/08/10 06:41:25;;;;;;;5.23;2.77;;;;;;;25.57;36.16;98102.28;5035743;28;20930;-70
2022/08/10 06:44:04;;;;;;;5.70;2.60;;;;;;;25.73;35.10;98106.19;5031718;28;20191;-70
2022/08/10 06:46:33;;;;;;;3.40;2.40;;;;;;;25.83;34.22;98103.78;5022054;28;20488;-72
2022/08/10 06:49:00;;;;;;;5.20;2.57;;;;;;;25.95;34.72;98101.09;5027737;28;20423;-70
2022/08/10 06:51:31;;;;;;;3.40;2.30;;;;;;;26.01;34.36;98102.06;5025698;28;20426;-72
2022/08/10 06:54:00;;;;;;;3.27;2.60;;;;;;;26.09;34.53;98099.03;5016152;28;20507;-70
2022/08/10 06:56:27;;;;;;;3.63;2.40;;;;;;;26.20;33.75;98100.97;5025118;28;20451;-71
2022/08/10 06:59:01;;;;;;;4.00;2.20;;;;;;;26.33;33.50;98093.72;5018575;28;20867;-71
2022/08/10 07:01:30;;;;;;;8.70;2.47;;;;;;;26.43;32.97;98102.00;5005101;28;20430;-70
2022/08/10 07:04:04;;;;;;;3.40;2.30;;;;;;;26.56;33.26;98108.22;5019305;28;20433;-71
2022/08/10 07:06:30;;;;;;;4.10;2.30;;;;;;;26.64;33.08;98103.31;5027592;28;20532;-70
2022/08/10 07:08:56;;;;;;;4.77;2.23;;;;;;;26.73;32.73;98109.09;5017580;28;20442;-69
2022/08/10 07:11:23;;;;;;;5.10;2.13;;;;;;;26.82;32.62;98102.38;5028251;28;20431;-70
2022/08/10 07:13:49;;;;;;;3.83;2.20;;;;;;;26.96;32.81;98110.19;5017044;28;20428;-72
2022/08/10 07:16:15;;;;;;;6.03;2.37;;;;;;;27.04;32.44;98100.91;5019730;28;20451;-69
2022/08/10 07:18:42;;;;;;;2.43;1.90;;;;;;;27.12;32.32;98106.72;5020531;28;20429;-69
2022/08/10 07:21:08;;;;;;;2.50;2.30;;;;;;;27.16;31.70;98101.69;5021114;28;20926;-72
2022/08/10 07:23:34;;;;;;;4.80;2.00;;;;;;;27.28;31.63;98097.09;5023706;28;20426;-69
2022/08/10 07:26:00;;;;;;;5.10;2.50;;;;;;;27.40;31.34;98091.69;5012530;28;20489;-70
2022/08/10 07:28:26;;;;;;;4.73;2.57;;;;;;;27.54;31.28;98099.50;5028709;28;20437;-70
2022/08/10 07:30:52;;;;;;;4.50;2.00;;;;;;;27.67;31.47;98099.19;5017493;28;20550;-68
2022/08/10 07:33:19;;;;;;;6.37;2.40;;;;;;;27.77;31.09;98101.25;5003176;28;20695;-71
2022/08/10 07:35:46;;;;;;;2.37;1.50;;;;;;;27.90;30.30;98092.03;5023245;28;20423;-70
2022/08/10 07:38:17;;;;;;;4.63;1.97;;;;;;;27.97;30.08;98094.56;5030245;28;20838;-71
2022/08/10 07:40:42;;;;;;;4.23;2.00;;;;;;;28.00;30.07;98100.28;5026721;28;20480;-71
2022/08/10 07:43:08;;;;;;;2.00;1.53;;;;;;;27.98;29.80;98106.97;5034966;28;20454;-72
2022/08/10 07:45:34;;;;;;;3.03;1.47;;;;;;;27.92;29.79;98103.38;5029173;28;20234;-70
2022/08/10 07:48:01;;;;;;;2.30;1.57;;;;;;;27.97;29.20;98097.28;5028720;28;20877;-71
2022/08/10 07:50:28;;;;;;;4.20;2.00;;;;;;;27.96;29.57;98093.78;5030049;28;20220;-71
2022/08/10 07:52:56;;;;;;;11.53;1.83;;;;;;;27.96;29.63;98099.16;5029392;28;20422;-71
2022/08/10 07:55:22;;;;;;;6.33;2.10;;;;;;;28.14;29.63;98094.59;5029684;28;20438;-72
2022/08/10 07:57:50;;;;;;;1.80;1.43;;;;;;;28.30;29.30;98088.41;5025654;28;20442;-71
2022/08/10 08:00:16;;;;;;;3.37;1.60;;;;;;;28.47;29.48;98091.06;5027052;28;20187;-70
2022/08/10 08:02:48;;;;;;;3.67;1.80;;;;;;;28.67;29.45;98098.63;5031191;28;20949;-70
2022/08/10 08:05:14;;;;;;;5.40;1.80;;;;;;;28.88;29.29;98092.72;5030577;28;20423;-70
2022/08/10 08:07:41;;;;;;;2.70;1.80;;;;;;;29.05;29.10;98090.78;5033364;28;20446;-70
2022/08/10 08:10:10;;;;;;;3.77;1.83;;;;;;;29.18;28.39;98086.06;5026762;28;20588;-71
2022/08/10 08:12:36;;;;;;;8.37;1.87;;;;;;;29.31;28.41;98084.88;5032277;28;20426;-70
2022/08/10 08:15:03;;;;;;;4.87;1.63;;;;;;;29.35;27.71;98091.44;5029036;28;20430;-69
2022/08/10 08:17:30;;;;;;;3.63;1.83;;;;;;;29.45;28.01;98096.94;5028938;28;21000;-71
2022/08/10 08:19:57;;;;;;;3.40;1.67;;;;;;;29.52;27.83;98099.44;5012755;28;20419;-70
2022/08/10 08:22:23;;;;;;;1.77;1.67;;;;;;;29.72;27.76;98102.31;5012289;28;20580;-72
2022/08/10 08:24:50;;;;;;;2.97;1.97;;;;;;;29.91;27.36;98093.03;5029973;28;20922;-70
2022/08/10 08:27:18;;;;;;;2.07;1.80;;;;;;;30.02;27.14;98101.00;5028999;28;20484;-70
2022/08/10 08:29:45;;;;;;;2.53;1.60;;;;;;;30.15;26.96;98094.34;5029176;28;20523;-72
2022/08/10 08:32:11;;;;;;;2.30;1.43;;;;;;;30.20;26.43;98098.97;5027586;28;20426;-70
2022/08/10 08:34:39;;;;;;;4.30;1.73;;;;;;;30.22;26.63;98104.13;5026277;28;20445;-70
2022/08/10 08:37:06;;;;;;;2.03;1.73;;;;;;;30.13;25.95;98098.38;5029768;28;20465;-71
2022/08/10 08:39:32;;;;;;;5.07;1.60;;;;;;;30.25;26.73;98104.41;5029724;28;20966;-68
2022/08/10 08:42:06;;;;;;;6.67;1.60;;;;;;;30.45;26.71;98092.09;5040035;28;20421;-71
2022/08/10 08:44:49;;;;;;;3.70;2.00;;;;;;;30.56;25.32;98099.22;5034932;28;20265;-70
2022/08/10 08:47:30;;;;;;;7.13;1.40;;;;;;;30.51;25.32;98101.88;5031453;28;20450;-72
2022/08/10 08:50:24;;;;;;;4.73;1.70;;;;;;;30.55;25.33;98094.09;5033536;28;20469;-71
2022/08/10 08:53:00;;;;;;;4.43;1.60;;;;;;;30.59;25.06;98095.22;5027277;28;20422;-71
2022/08/10 08:56:00;;;;;;;2.30;1.40;;;;;;;30.71;24.61;98087.69;5026141;28;20426;-71
2022/08/10 08:58:35;;;;;;;4.20;1.43;;;;;;;30.92;24.43;98082.38;5030441;28;20434;-71
2022/08/10 09:01:12;;;;;;;3.47;1.60;;;;;;;31.10;24.28;98081.91;5032418;28;20414;-69
2022/08/10 09:03:51;;;;;;;6.30;1.73;;;;;;;31.08;23.77;98088.66;5029060;28;20517;-71
2022/08/10 09:06:29;;;;;;;4.03;1.50;;;;;;;31.09;23.91;98093.81;5035458;28;20437;-70
2022/08/10 09:09:12;;;;;;;2.00;1.80;;;;;;;31.25;23.83;98088.50;5033312;28;20867;-70
2022/08/10 09:12:06;;;;;;;1.87;1.50;;;;;;;31.48;23.81;98081.75;5024615;28;20509;-71
2022/08/10 09:14:50;;;;;;;2.13;1.40;;;;;;;31.66;23.72;98079.63;5039641;28;20434;-69
2022/08/10 09:17:31;;;;;;;2.10;1.70;;;;;;;31.76;22.97;98076.16;5031375;28;20445;-70
2022/08/10 09:20:16;;;;;;;2.40;1.57;;;;;;;31.86;22.85;98085.09;5028946;28;20427;-70
2022/08/10 09:23:06;;;;;;;10.60;1.80;;;;;;;31.98;23.36;98071.28;5028365;28;20430;-70
2022/08/10 09:25:34;;;;;;;1.73;1.63;;;;;;;32.11;23.37;98064.47;5019743;28;20733;-69
2022/08/10 09:28:08;;;;;;;6.03;1.73;;;;;;;32.31;23.18;98060.16;5027501;28;20455;-70
2022/08/10 09:30:46;;;;;;;3.33;1.40;;;;;;;32.44;22.47;98058.75;5018237;28;20465;-70
2022/08/10 09:33:14;;;;;;;2.63;1.50;;;;;;;32.20;22.17;98064.75;5021974;28;20424;-71
2022/08/10 09:35:46;;;;;;;1.50;1.40;;;;;;;32.30;22.39;98069.38;5022024;28;20417;-71
2022/08/10 09:38:33;;;;;;;3.77;1.67;;;;;;;32.53;22.20;98067.16;5031322;28;20466;-70
2022/08/10 09:41:19;;;;;;;4.30;1.30;;;;;;;32.61;21.53;98070.13;5034989;28;20428;-70
2022/08/10 09:44:07;;;;;;;2.90;1.67;;;;;;;32.79;21.66;98065.16;5031444;28;20536;-69
2022/08/10 09:46:50;;;;;;;3.23;1.63;;;;;;;32.92;21.03;98067.31;5024871;28;20435;-70
2022/08/10 09:49:19;;;;;;;4.33;1.60;;;;;;;32.89;20.43;98069.78;5030741;28;20462;-70
2022/08/10 09:52:03;;;;;;;3.70;1.20;;;;;;;32.99;20.80;98063.50;5024692;28;20418;-69
2022/08/10 09:54:38;;;;;;;2.80;1.50;;;;;;;33.07;21.26;98060.19;5019834;28;20481;-71
2022/08/10 09:57:38;;;;;;;2.50;1.60;;;;;;;33.24;20.53;98049.78;5005052;28;20985;-71
2022/08/10 10:00:11;;;;;;;4.37;1.50;;;;;;;33.46;20.11;98051.31;5019304;28;20426;-71
2022/08/10 10:03:14;;;;;;;7.10;2.00;;;;;;;33.42;20.56;98049.44;5023052;28;20418;-70
2022/08/10 10:06:09;;;;;;;4.47;1.40;;;;;;;33.60;20.22;98045.25;5024995;28;20422;-70
2022/08/10 10:08:42;;;;;;;1.50;1.10;;;;;;;33.67;19.83;98049.25;5013296;28;20952;-69
2022/08/10 10:11:22;;;;;;;3.27;1.40;;;;;;;33.80;19.45;98045.06;5026264;28;20521;-69
2022/08/10 10:14:00;;;;;;;2.33;1.40;;;;;;;34.01;19.15;98047.66;5026435;28;20437;-70
2022/08/10 10:16:56;;;;;;;1.90;1.30;;;;;;;34.14;18.97;98044.28;5023790;28;20991;-71
2022/08/10 10:19:49;;;;;;;1.33;1.20;;;;;;;34.21;18.96;98053.97;5019802;28;20482;-69
2022/08/10 10:22:40;;;;;;;1.83;1.60;;;;;;;34.06;18.83;98055.75;5013390;28;20433;-69
2022/08/10 10:25:17;;;;;;;2.17;1.30;;;;;;;34.25;19.45;98049.59;5017369;28;20415;-69
2022/08/10 10:27:50;;;;;;;2.20;1.30;;;;;;;34.25;18.42;98028.63;5027434;28;20445;-71
2022/08/10 10:30:16;;;;;;;3.50;1.40;;;;;;;34.12;18.06;98029.31;5004089;28;20542;-71
2022/08/10 10:32:59;;;;;;;2.17;1.00;;;;;;;33.86;18.99;98051.28;5023686;28;20441;-70
2022/08/10 10:35:45;;;;;;;6.20;1.50;;;;;;;33.57;19.58;98041.19;5021623;28;20856;-70
2022/08/10 10:38:12;;;;;;;2.07;1.30;;;;;;;33.65;18.81;98040.56;5025060;28;20512;-69
2022/08/10 10:41:10;;;;;;;5.90;1.40;;;;;;;33.79;18.77;98039.94;4997471;28;20897;-71
2022/08/10 10:43:57;;;;;;;11.47;1.40;;;;;;;34.02;19.59;98029.41;5028561;28;20749;-70
2022/08/10 10:46:47;;;;;;;3.53;1.33;;;;;;;33.73;18.81;98044.59;5030621;28;20953;-69
2022/08/10 10:49:25;;;;;;;2.77;1.30;;;;;;;33.81;19.20;98035.03;5029038;28;20414;-69
2022/08/10 10:52:24;;;;;;;1.40;1.30;;;;;;;33.86;19.08;98032.25;5029995;28;20416;-69
2022/08/10 10:55:02;;;;;;;3.23;1.20;;;;;;;33.81;18.91;98024.94;5021256;28;20419;-71
2022/08/10 10:57:45;;;;;;;1.83;1.20;;;;;;;33.77;18.93;98026.63;5024869;28;20450;-71
2022/08/10 11:00:11;;;;;;;5.63;1.30;;;;;;;33.93;19.63;98023.78;5026969;28;20418;-73
2022/08/10 11:02:47;;;;;;;5.63;1.57;;;;;;;33.93;19.52;98026.50;5022210;28;20821;-72
2022/08/10 11:05:31;;;;;;;4.60;1.47;;;;;;;33.98;18.79;98023.75;5016832;28;20458;-71
2022/08/10 11:08:01;;;;;;;2.80;1.30;;;;;;;33.97;18.97;98016.69;5026398;28;20442;-71
2022/08/10 11:10:59;;;;;;;3.20;1.73;;;;;;;33.69;18.42;98014.47;5022599;28;20494;-71
2022/08/10 11:13:40;;;;;;;1.73;1.30;;;;;;;34.09;18.81;98003.53;5013486;28;20422;-70
2022/08/10 11:16:12;;;;;;;4.20;1.40;;;;;;;34.25;19.20;98011.53;5019165;28;20901;-70
2022/08/10 11:19:06;;;;;;;2.30;1.30;;;;;;;34.50;18.31;98012.38;5019258;28;20472;-70
2022/08/10 11:21:40;;;;;;;2.53;1.47;;;;;;;34.76;18.41;98021.84;5020214;28;20410;-70
2022/08/10 11:24:06;;;;;;;2.20;1.40;;;;;;;34.61;17.49;98019.31;5022780;28;20449;-71
2022/08/10 11:26:47;;;;;;;3.30;1.20;;;;;;;34.65;17.65;98020.34;5018390;28;20462;-69
2022/08/10 11:29:19;;;;;;;9.33;1.13;;;;;;;34.79;17.22;98025.88;5021461;28;20632;-70
2022/08/10 11:32:12;;;;;;;3.00;1.20;;;;;;;34.96;16.91;98009.09;5008708;28;20418;-70
2022/08/10 11:35:02;;;;;;;5.00;1.20;;;;;;;35.13;17.60;98016.75;4999540;28;20452;-69
2022/08/10 11:37:43;;;;;;;1.40;1.30;;;;;;;35.23;17.42;98010.34;5012228;28;20559;-70
2022/08/10 11:40:17;;;;;;;3.10;1.50;;;;;;;35.20;17.44;98008.19;5029531;28;20484;-71
2022/08/10 11:43:06;;;;;;;2.40;1.20;;;;;;;35.33;17.36;98018.34;5028494;28;20425;-69
2022/08/10 11:45:36;;;;;;;2.23;1.23;;;;;;;35.06;16.89;98019.81;5028598;28;20418;-70
2022/08/10 11:48:23;;;;;;;2.27;1.40;;;;;;;35.19;17.68;98018.31;5028919;28;20485;-69
2022/08/10 11:50:53;;;;;;;3.77;1.60;;;;;;;35.23;17.29;98004.91;5029227;28;20470;-69
2022/08/10 11:53:30;;;;;;;3.30;1.03;;;;;;;35.16;17.41;98007.19;5029179;28;20422;-70
2022/08/10 11:55:58;;;;;;;3.23;1.10;;;;;;;35.25;17.63;98010.03;5010594;28;20430;-71
2022/08/10 12:01:12;;;;;;;4.27;1.17;;;;;;;35.21;17.65;97993.47;5020203;28;20423;-71